Time;durP1;ratioP1;P1;durP2;ratioP2;P2;SDS_P1;SDS_P2;PMS_P1;PMS_P2;Temp;Humidity;BMP_temperature;BMP_pressure;BME280_temperature;BME280_humidity;BME280_pressure;Samples;Min_cycle;Max_cycle;Signal;HPM_P1;HPM_P2
2021/04/03 00:00:04;;;;;;;22.55;3.83;;;7.60;94.10;;;;;;4972843;28;20031;-72
2021/04/03 00:02:30;;;;;;;26.80;4.78;;;7.70;93.80;;;;;;4973374;28;20057;-72
2021/04/03 00:04:55;;;;;;;22.92;4.50;;;7.90;93.80;;;;;;4972858;28;20408;-71
2021/04/03 00:07:21;;;;;;;31.98;5.30;;;7.80;93.60;;;;;;4972663;28;20461;-72
2021/04/03 00:09:47;;;;;;;12.85;3.58;;;7.70;93.80;;;;;;4972948;28;20035;-71
2021/04/03 00:12:12;;;;;;;17.92;3.85;;;7.90;93.90;;;;;;4972835;28;20109;-72
2021/04/03 00:14:38;;;;;;;25.00;4.00;;;7.70;94.00;;;;;;4974318;28;20039;-72
2021/04/03 00:17:04;;;;;;;29.40;4.38;;;7.80;93.90;;;;;;4972512;28;20061;-72
2021/04/03 00:19:29;;;;;;;23.00;5.78;;;7.80;93.90;;;;;;4972329;28;20533;-71
2021/04/03 00:21:55;;;;;;;19.00;3.60;;;7.80;93.70;;;;;;4972635;28;20372;-71
2021/04/03 00:24:21;;;;;;;27.42;4.38;;;7.70;93.90;;;;;;4987594;28;20053;-72
2021/04/03 00:26:46;;;;;;;25.83;4.07;;;7.60;93.90;;;;;;4970984;28;20072;-72
2021/04/03 00:29:12;;;;;;;30.27;4.57;;;7.70;94.00;;;;;;4974177;28;20380;-71
2021/04/03 00:31:37;;;;;;;23.13;3.60;;;7.70;93.80;;;;;;4972538;28;20089;-71
2021/04/03 00:34:03;;;;;;;25.33;4.07;;;7.70;94.00;;;;;;4972167;28;20034;-74
2021/04/03 00:36:29;;;;;;;28.73;4.45;;;7.60;93.80;;;;;;4972230;28;20123;-73
2021/04/03 00:38:54;;;;;;;26.70;5.22;;;7.60;93.90;;;;;;4972272;28;20093;-72
2021/04/03 00:41:20;;;;;;;23.73;3.65;;;7.60;93.80;;;;;;4972950;28;20019;-73
2021/04/03 00:43:46;;;;;;;27.42;4.47;;;7.40;93.70;;;;;;4972078;28;20346;-73
2021/04/03 00:46:11;;;;;;;23.67;4.70;;;7.40;93.60;;;;;;4987468;28;20039;-71
2021/04/03 00:48:37;;;;;;;24.20;3.92;;;7.40;93.50;;;;;;4972131;28;20035;-72
2021/04/03 00:51:04;;;;;;;19.25;3.65;;;7.40;93.40;;;;;;4972001;28;20038;-74
2021/04/03 00:53:31;;;;;;;26.02;3.65;;;7.30;93.20;;;;;;4973621;28;20027;-73
2021/04/03 00:55:57;;;;;;;25.40;3.42;;;7.40;93.00;;;;;;4971921;28;20038;-74
2021/04/03 00:58:23;;;;;;;20.17;3.20;;;7.30;92.50;;;;;;4971800;28;20065;-73
2021/04/03 01:00:49;;;;;;;30.58;3.85;;;7.20;92.60;;;;;;4987319;28;20039;-73
2021/04/03 01:03:15;;;;;;;25.45;2.83;;;7.10;92.40;;;;;;4971803;28;20037;-72
2021/04/03 01:05:42;;;;;;;17.08;2.78;;;7.20;92.30;;;;;;4973559;28;20027;-73
2021/04/03 01:08:08;;;;;;;17.20;3.53;;;7.00;92.20;;;;;;4971865;28;20039;-72
2021/04/03 01:10:47;;;;;;;17.52;3.20;;;7.10;92.20;;;;;;4971788;28;20727;-73
2021/04/03 01:13:41;;;;;;;18.75;2.75;;;7.20;91.80;;;;;;4971348;28;20472;-72
2021/04/03 01:16:30;;;;;;;23.20;3.38;;;6.90;91.50;;;;;;4971446;28;20034;-71
2021/04/03 01:18:55;;;;;;;24.00;3.22;;;6.90;91.60;;;;;;4971077;28;20503;-73
2021/04/03 01:21:54;;;;;;;22.23;3.03;;;6.90;91.40;;;;;;4971488;28;20070;-72
2021/04/03 01:24:41;;;;;;;19.55;3.25;;;6.80;91.30;;;;;;4970348;28;20085;-72
2021/04/03 01:27:25;;;;;;;20.23;3.05;;;6.70;91.30;;;;;;4971284;28;20039;-72
2021/04/03 01:30:15;;;;;;;21.23;2.80;;;6.70;91.40;;;;;;4971167;28;20029;-72
2021/04/03 01:33:01;;;;;;;18.25;3.25;;;6.70;91.20;;;;;;4971754;28;20029;-72
2021/04/03 01:36:10;;;;;;;21.30;3.08;;;6.70;91.20;;;;;;4995391;28;20030;-71
2021/04/03 01:38:39;;;;;;;24.30;3.55;;;6.70;91.20;;;;;;4968917;28;20335;-72
2021/04/03 01:41:06;;;;;;;24.90;3.22;;;6.70;91.20;;;;;;5004626;28;20030;-72
2021/04/03 01:43:39;;;;;;;16.13;3.15;;;6.60;91.10;;;;;;5010123;28;20041;-72
2021/04/03 01:46:06;;;;;;;21.42;2.53;;;6.60;91.10;;;;;;5010079;28;20058;-71
2021/04/03 01:48:35;;;;;;;20.85;3.45;;;6.60;91.40;;;;;;5009844;28;20442;-72
2021/04/03 01:51:01;;;;;;;21.45;3.15;;;6.40;91.30;;;;;;5008389;28;20030;-72
2021/04/03 01:53:28;;;;;;;29.00;3.10;;;6.50;91.30;;;;;;5010252;28;20029;-73
2021/04/03 01:55:56;;;;;;;22.30;3.10;;;6.50;91.20;;;;;;5009571;28;20041;-72
2021/04/03 01:58:22;;;;;;;25.17;3.22;;;6.50;91.20;;;;;;5009593;28;20033;-73
2021/04/03 02:00:48;;;;;;;25.48;2.90;;;6.50;91.40;;;;;;5009715;28;20060;-72
2021/04/03 02:03:15;;;;;;;21.30;3.10;;;6.40;91.60;;;;;;5009909;28;20070;-72
2021/04/03 02:05:41;;;;;;;25.65;3.17;;;6.40;91.50;;;;;;5011178;28;20021;-73
2021/04/03 02:08:08;;;;;;;20.20;2.45;;;6.40;91.60;;;;;;5009866;28;20091;-73
2021/04/03 02:10:35;;;;;;;23.08;2.60;;;6.50;91.40;;;;;;5008751;28;20120;-72
2021/04/03 02:13:03;;;;;;;26.92;3.28;;;6.50;91.30;;;;;;5009912;28;20404;-73
2021/04/03 02:15:29;;;;;;;;;;;6.50;91.30;;;;;;5009939;28;20042;-72
2021/04/03 02:17:57;;;;;;;22.65;3.25;;;6.40;91.40;;;;;;5009488;28;19928;-72
2021/04/03 02:20:25;;;;;;;19.83;2.60;;;6.50;91.40;;;;;;5010019;28;20402;-72
2021/04/03 02:22:51;;;;;;;22.20;4.22;;;6.60;91.30;;;;;;5009342;28;20065;-72
2021/04/03 02:25:17;;;;;;;17.15;2.75;;;6.60;91.20;;;;;;5009472;28;20046;-72
2021/04/03 02:27:44;;;;;;;27.20;3.22;;;6.60;91.10;;;;;;5009594;28;20183;-72
2021/04/03 02:30:16;;;;;;;21.83;2.60;;;6.50;91.20;;;;;;5009790;28;20042;-72
2021/04/03 02:32:45;;;;;;;12.82;2.33;;;6.70;91.30;;;;;;5010865;28;20021;-72
2021/04/03 02:35:12;;;;;;;18.10;3.65;;;6.70;91.10;;;;;;5008439;28;20068;-73
2021/04/03 02:37:39;;;;;;;26.77;3.03;;;6.70;91.00;;;;;;5008060;28;20038;-73
2021/04/03 02:40:07;;;;;;;16.77;2.25;;;6.70;91.00;;;;;;5009201;28;20096;-73
2021/04/03 02:42:33;;;;;;;;;;;6.60;91.10;;;;;;5010086;28;20387;-72
2021/04/03 02:45:03;;;;;;;22.17;2.72;;;6.60;91.30;;;;;;5009483;28;19910;-72
2021/04/03 02:47:38;;;;;;;26.35;2.90;;;6.70;91.30;;;;;;5010002;28;20040;-72
2021/04/03 02:50:08;;;;;;;20.48;2.70;;;6.60;91.40;;;;;;5009540;28;20042;-72
2021/04/03 02:52:37;;;;;;;20.02;2.97;;;6.60;91.40;;;;;;5008184;28;20053;-72
2021/04/03 02:55:04;;;;;;;20.35;3.05;;;6.60;91.50;;;;;;5009157;28;20041;-72
2021/04/03 02:57:31;;;;;;;23.45;3.95;;;6.60;91.60;;;;;;5009433;28;20096;-73
2021/04/03 02:59:58;;;;;;;22.80;3.77;;;6.80;91.70;;;;;;5009210;28;20021;-71
2021/04/03 03:02:26;;;;;;;20.02;3.05;;;6.60;91.80;;;;;;5010911;28;20029;-72
2021/04/03 03:04:53;;;;;;;29.95;4.20;;;6.70;91.80;;;;;;5010992;28;20041;-72
2021/04/03 03:07:23;;;;;;;21.10;2.90;;;6.50;92.00;;;;;;5013008;28;20050;-72
2021/04/03 03:09:50;;;;;;;21.48;4.05;;;6.60;91.90;;;;;;5011830;28;20050;-72
2021/04/03 03:12:19;;;;;;;16.97;2.97;;;6.60;92.20;;;;;;5012705;28;20030;-71
2021/04/03 03:14:46;;;;;;;23.88;3.75;;;6.40;92.40;;;;;;5012557;28;20756;-70
2021/04/03 03:17:13;;;;;;;22.65;3.55;;;6.60;92.40;;;;;;5014317;28;20438;-71
2021/04/03 03:19:39;;;;;;;35.70;4.35;;;6.50;92.50;;;;;;5011632;28;20082;-72
2021/04/03 03:22:06;;;;;;;25.38;3.65;;;6.50;92.60;;;;;;5012875;28;20030;-72
2021/04/03 03:24:34;;;;;;;25.35;3.55;;;6.50;92.60;;;;;;5012675;28;20034;-72
2021/04/03 03:27:01;;;;;;;26.87;3.60;;;6.60;92.60;;;;;;5011456;28;20109;-72
2021/04/03 03:29:28;;;;;;;24.77;3.38;;;6.60;92.60;;;;;;5013428;28;20440;-71
2021/04/03 03:31:54;;;;;;;26.73;3.58;;;6.70;93.00;;;;;;5012465;28;20691;-72
2021/04/03 03:34:20;;;;;;;24.75;3.53;;;6.60;92.60;;;;;;5012498;28;20034;-72
2021/04/03 03:36:46;;;;;;;27.52;3.35;;;6.70;92.70;;;;;;5011415;28;20034;-74
2021/04/03 03:39:12;;;;;;;23.08;3.22;;;6.80;92.60;;;;;;5011881;28;20041;-72
2021/04/03 03:41:40;;;;;;;27.33;3.83;;;6.50;92.90;;;;;;5012705;28;20025;-72
2021/04/03 03:44:08;;;;;;;27.27;3.90;;;6.50;93.20;;;;;;5011961;28;20044;-73
2021/04/03 03:46:34;;;;;;;21.17;3.20;;;6.60;93.30;;;;;;5010928;28;20494;-72
2021/04/03 03:49:00;;;;;;;24.45;3.92;;;6.60;93.10;;;;;;5012434;28;20326;-72
2021/04/03 03:51:26;;;;;;;31.92;4.20;;;6.50;93.20;;;;;;5012035;28;20037;-72
2021/04/03 03:53:51;;;;;;;27.70;4.03;;;6.40;93.40;;;;;;5012203;28;20396;-71
2021/04/03 03:56:17;;;;;;;30.73;4.80;;;6.50;93.90;;;;;;5012536;28;20352;-72
2021/04/03 03:58:43;;;;;;;32.88;3.78;;;6.50;93.90;;;;;;5012256;28;20128;-71
2021/04/03 04:01:09;;;;;;;33.60;4.05;;;6.40;93.90;;;;;;5011892;28;20388;-73
2021/04/03 04:03:35;;;;;;;50.47;4.32;;;6.60;94.00;;;;;;5010608;28;20117;-71
2021/04/03 04:06:01;;;;;;;31.45;4.78;;;6.70;93.90;;;;;;5010968;28;20108;-72
2021/04/03 04:08:27;;;;;;;30.52;4.75;;;6.70;94.00;;;;;;5013418;28;20026;-72
2021/04/03 04:10:53;;;;;;;35.03;4.80;;;6.60;93.90;;;;;;5011801;28;20050;-72
2021/04/03 04:13:19;;;;;;;37.60;5.45;;;6.70;93.90;;;;;;5011718;28;20050;-72
2021/04/03 04:15:44;;;;;;;31.58;5.22;;;6.70;94.00;;;;;;5009180;28;20383;-71
2021/04/03 04:18:10;;;;;;;28.70;4.00;;;6.80;93.90;;;;;;5010773;28;20056;-72
2021/04/03 04:20:36;;;;;;;40.25;5.28;;;6.60;94.10;;;;;;5012037;28;20431;-72
2021/04/03 04:23:02;;;;;;;32.58;5.25;;;6.60;94.10;;;;;;5010336;28;20056;-71
2021/04/03 04:25:28;;;;;;;23.95;4.20;;;6.60;94.10;;;;;;5010510;28;20121;-72
2021/04/03 04:27:53;;;;;;;39.42;5.88;;;6.40;94.40;;;;;;5011686;28;20049;-72
2021/04/03 04:30:20;;;;;;;46.10;5.57;;;6.50;94.60;;;;;;5011323;28;20648;-72
2021/04/03 04:32:45;;;;;;;30.38;5.22;;;6.60;94.40;;;;;;5010975;28;20017;-72
2021/04/03 04:35:12;;;;;;;40.63;5.85;;;6.60;94.10;;;;;;5011918;28;20018;-73
2021/04/03 04:37:39;;;;;;;27.98;5.38;;;6.60;94.30;;;;;;5011004;28;20069;-71
2021/04/03 04:40:06;;;;;;;37.55;6.40;;;6.60;94.70;;;;;;5011267;28;20054;-73
2021/04/03 04:42:32;;;;;;;37.92;6.70;;;6.60;94.70;;;;;;5011225;28;20040;-73
2021/04/03 04:44:59;;;;;;;51.60;6.30;;;6.60;94.70;;;;;;5010704;28;20456;-72
2021/04/03 04:47:25;;;;;;;39.63;5.72;;;6.40;94.90;;;;;;5012467;28;20054;-71
2021/04/03 04:49:52;;;;;;;45.63;7.22;;;6.40;95.20;;;;;;5010969;28;20064;-71
2021/04/03 04:52:18;;;;;;;31.65;4.95;;;6.60;95.40;;;;;;5010832;28;20121;-71
2021/04/03 04:54:44;;;;;;;37.28;6.25;;;6.60;95.10;;;;;;5009843;28;20064;-71
2021/04/03 04:57:09;;;;;;;42.25;6.65;;;6.60;95.40;;;;;;5010733;28;20026;-71
2021/04/03 04:59:35;;;;;;;46.75;7.05;;;6.50;95.60;;;;;;5012517;28;20397;-71
2021/04/03 05:02:01;;;;;;;42.97;7.72;;;6.40;95.90;;;;;;5009658;28;20034;-72
2021/04/03 05:04:27;;;;;;;37.30;5.70;;;6.30;96.30;;;;;;5010412;28;20065;-72
2021/04/03 05:06:53;;;;;;;26.50;4.75;;;6.50;96.30;;;;;;5010631;28;20072;-73
2021/04/03 05:09:18;;;;;;;40.10;5.90;;;6.60;96.40;;;;;;5010607;28;20030;-72
2021/04/03 05:11:44;;;;;;;41.40;7.18;;;6.60;96.10;;;;;;5010357;28;20113;-71
2021/04/03 05:14:10;;;;;;;40.85;5.80;;;6.60;96.10;;;;;;5012023;28;20046;-71
2021/04/03 05:16:35;;;;;;;32.78;5.35;;;6.60;96.10;;;;;;5010449;28;20038;-71
2021/04/03 05:19:01;;;;;;;56.58;6.55;;;6.60;96.30;;;;;;5009444;28;20045;-72
2021/04/03 05:21:27;;;;;;;46.05;7.93;;;6.70;96.30;;;;;;5010214;28;20056;-73
2021/04/03 05:23:52;;;;;;;50.13;7.10;;;6.70;96.30;;;;;;5009211;28;20559;-73
2021/04/03 05:26:18;;;;;;;42.38;6.35;;;6.70;96.50;;;;;;5010928;28;20017;-73
2021/04/03 05:28:44;;;;;;;43.75;6.18;;;6.50;96.70;;;;;;5010129;28;20157;-73
2021/04/03 05:31:13;;;;;;;45.08;7.22;;;6.40;96.80;;;;;;5009262;28;20289;-73
2021/04/03 05:33:39;;;;;;;34.83;7.15;;;6.40;96.90;;;;;;5010401;28;20042;-73
2021/04/03 05:36:04;;;;;;;48.35;6.72;;;6.50;96.70;;;;;;5010053;28;20030;-73
2021/04/03 05:38:30;;;;;;;41.67;6.70;;;6.60;96.80;;;;;;5010479;28;20423;-73
2021/04/03 05:40:56;;;;;;;36.45;6.50;;;6.80;96.60;;;;;;5010111;28;20034;-74
2021/04/03 05:43:23;;;;;;;45.80;6.82;;;6.80;96.40;;;;;;5009982;28;20030;-72
2021/04/03 05:45:53;;;;;;;42.55;7.15;;;6.70;96.60;;;;;;5009716;28;20073;-75
2021/04/03 05:48:21;;;;;;;33.05;6.25;;;6.80;96.70;;;;;;5009995;28;20037;-73
2021/04/03 05:50:48;;;;;;;48.72;6.88;;;6.80;96.40;;;;;;5009856;28;20037;-72
2021/04/03 05:53:14;;;;;;;40.45;7.13;;;6.80;96.60;;;;;;5011184;28;20034;-72
2021/04/03 05:55:39;;;;;;;51.60;7.30;;;6.70;96.60;;;;;;5008775;28;20428;-72
2021/04/03 05:58:06;;;;;;;38.00;7.00;;;6.80;96.50;;;;;;5009740;28;20131;-73
2021/04/03 06:00:31;;;;;;;36.00;6.35;;;7.00;96.30;;;;;;5009470;28;20045;-72
2021/04/03 06:02:57;;;;;;;53.90;7.60;;;6.80;96.40;;;;;;5009852;28;20076;-72
2021/04/03 06:05:22;;;;;;;41.92;6.50;;;6.90;96.40;;;;;;5011350;28;20018;-73
2021/04/03 06:07:48;;;;;;;40.20;6.47;;;7.00;96.30;;;;;;5010020;28;20041;-73
2021/04/03 06:10:14;;;;;;;36.30;6.82;;;7.10;96.20;;;;;;5008709;28;20045;-73
2021/04/03 06:12:43;;;;;;;46.50;7.47;;;7.20;96.20;;;;;;5009604;28;20049;-73
2021/04/03 06:15:14;;;;;;;43.83;7.50;;;7.00;96.10;;;;;;5008150;28;20066;-73
2021/04/03 06:17:40;;;;;;;30.15;5.72;;;7.10;96.10;;;;;;5010665;28;20471;-74
2021/04/03 06:20:07;;;;;;;31.67;6.28;;;7.10;96.00;;;;;;5008410;28;20120;-75
2021/04/03 06:22:47;;;;;;;35.92;6.57;;;7.20;95.90;;;;;;5009436;28;20088;-74
2021/04/03 06:25:14;;;;;;;35.00;6.82;;;7.30;95.80;;;;;;5009314;28;20038;-74
2021/04/03 06:27:39;;;;;;;25.10;5.07;;;7.40;95.70;;;;;;5009085;28;20056;-74
2021/04/03 06:30:16;;;;;;;39.38;6.38;;;7.50;95.60;;;;;;5009094;28;20042;-73
2021/04/03 06:32:47;;;;;;;37.60;6.70;;;7.50;95.30;;;;;;5010888;28;20026;-72
2021/04/03 06:35:12;;;;;;;34.97;5.88;;;7.30;95.30;;;;;;5008718;28;20096;-72
2021/04/03 06:37:38;;;;;;;27.92;6.60;;;7.40;95.60;;;;;;5009196;28;20034;-73
2021/04/03 06:40:09;;;;;;;40.95;6.85;;;7.60;95.30;;;;;;5010795;28;20372;-82
2021/04/03 06:42:44;;;;;;;29.98;6.03;;;7.70;95.10;;;;;;5013325;28;20038;-73
2021/04/03 06:45:32;;;;;;;34.55;6.88;;;7.50;95.00;;;;;;5013147;28;20444;-71
2021/04/03 06:48:00;;;;;;;24.55;5.72;;;7.60;95.00;;;;;;5013070;28;20455;-75
2021/04/03 06:50:28;;;;;;;43.03;7.05;;;7.80;95.00;;;;;;5014318;28;20014;-77
2021/04/03 06:52:54;;;;;;;;;;;7.80;95.00;;;;;;5013600;28;20514;-74
2021/04/03 06:55:22;;;;;;;26.65;6.57;;;7.90;94.90;;;;;;5011857;28;19917;-73
2021/04/03 06:57:49;;;;;;;28.25;5.80;;;7.90;94.80;;;;;;5013124;28;20113;-71
2021/04/03 07:00:17;;;;;;;30.40;7.07;;;8.00;94.70;;;;;;5011611;28;20452;-71
2021/04/03 07:02:56;;;;;;;;;;;8.00;94.70;;;;;;5013350;28;20173;-71
2021/04/03 07:05:24;;;;;;;45.17;6.45;;;8.10;94.60;;;;;;5014537;28;19902;-72
2021/04/03 07:07:50;;;;;;;33.03;6.28;;;8.10;94.50;;;;;;5012802;28;20033;-72
2021/04/03 07:10:17;;;;;;;32.13;5.85;;;8.20;94.40;;;;;;5012247;28;20126;-74
2021/04/03 07:12:44;;;;;;;29.08;6.97;;;8.20;94.30;;;;;;5012423;28;20030;-70
2021/04/03 07:15:11;;;;;;;32.15;7.05;;;8.40;94.10;;;;;;5012350;28;20697;-72
2021/04/03 07:17:41;;;;;;;28.60;5.75;;;8.50;94.00;;;;;;5013725;28;20042;-71
2021/04/03 07:20:10;;;;;;;37.75;6.97;;;8.50;93.80;;;;;;5012637;28;20320;-74
2021/04/03 07:22:37;;;;;;;34.40;7.05;;;8.30;93.70;;;;;;5012467;28;20026;-73
2021/04/03 07:25:08;;;;;;;22.42;6.28;;;8.30;93.80;;;;;;5012624;28;20463;-71
2021/04/03 07:27:37;;;;;;;35.22;6.57;;;8.60;93.80;;;;;;5012174;28;20116;-75
2021/04/03 07:30:03;;;;;;;33.47;6.35;;;8.80;93.40;;;;;;5012367;28;20049;-72
2021/04/03 07:32:41;;;;;;;30.90;6.05;;;8.80;92.80;;;;;;5013807;28;20034;-73
2021/04/03 07:35:15;;;;;;;33.78;6.35;;;8.90;92.70;;;;;;5012334;28;20635;-75
2021/04/03 07:37:41;;;;;;;27.73;5.45;;;8.90;92.50;;;;;;5011908;28;20056;-73
2021/04/03 07:40:30;;;;;;;30.20;6.70;;;8.90;92.50;;;;;;5012163;28;20030;-72
2021/04/03 07:42:57;;;;;;;23.48;6.18;;;9.00;92.40;;;;;;5003958;28;20096;-72
2021/04/03 07:45:40;;;;;;;25.30;6.13;;;8.90;92.50;;;;;;5011871;28;20057;-76
2021/04/03 07:48:12;;;;;;;30.52;5.68;;;8.90;93.00;;;;;;5010718;28;20044;-70
2021/04/03 07:50:45;;;;;;;26.85;6.47;;;8.80;92.70;;;;;;5011913;28;20029;-78
2021/04/03 07:53:11;;;;;;;28.00;6.80;;;8.80;93.00;;;;;;5011108;28;20485;-74
2021/04/03 07:55:38;;;;;;;26.88;7.05;;;8.90;93.00;;;;;;5011762;28;20137;-76
2021/04/03 07:58:22;;;;;;;31.88;6.70;;;8.80;93.00;;;;;;5011744;28;20065;-77
2021/04/03 08:00:48;;;;;;;27.88;6.32;;;9.00;93.10;;;;;;5011779;28;20372;-74
2021/04/03 08:03:18;;;;;;;24.00;6.25;;;9.00;93.00;;;;;;5011345;28;20462;-75
2021/04/03 08:05:44;;;;;;;28.48;5.65;;;9.10;92.70;;;;;;5010664;28;20061;-76
2021/04/03 08:08:10;;;;;;;24.75;6.05;;;9.00;92.40;;;;;;5013264;28;20761;-75
2021/04/03 08:10:36;;;;;;;26.42;7.05;;;9.00;92.60;;;;;;5011575;28;20066;-73
2021/04/03 08:13:02;;;;;;;27.20;6.85;;;9.10;92.30;;;;;;5010233;28;20062;-73
2021/04/03 08:15:28;;;;;;;31.08;7.30;;;9.00;92.70;;;;;;5010333;28;20053;-74
2021/04/03 08:17:54;;;;;;;28.38;7.28;;;9.20;92.90;;;;;;5011051;28;20087;-72
2021/04/03 08:20:22;;;;;;;30.95;6.88;;;9.20;92.40;;;;;;5011986;28;20030;-73
2021/04/03 08:23:01;;;;;;;32.28;7.63;;;9.40;92.50;;;;;;5011486;28;20038;-72
2021/04/03 08:25:27;;;;;;;20.25;6.78;;;9.40;92.00;;;;;;5011470;28;20065;-71
2021/04/03 08:27:53;;;;;;;29.38;6.45;;;9.80;92.30;;;;;;5010330;28;20062;-72
2021/04/03 08:30:29;;;;;;;36.05;7.15;;;10.40;91.30;;;;;;5010926;28;20041;-77
2021/04/03 08:33:04;;;;;;;31.27;6.47;;;11.30;91.20;;;;;;5011226;28;20112;-77
2021/04/03 08:35:30;;;;;;;24.73;5.32;;;12.10;88.80;;;;;;5011876;28;20041;-73
2021/04/03 08:38:08;;;;;;;28.42;5.82;;;13.10;83.30;;;;;;5011080;28;20038;-76
2021/04/03 08:40:34;;;;;;;25.35;6.38;;;13.90;80.40;;;;;;5011415;28;20058;-74
2021/04/03 08:43:00;;;;;;;24.70;6.30;;;14.70;80.10;;;;;;5002364;28;20076;-76
2021/04/03 08:45:25;;;;;;;30.73;7.13;;;15.10;78.30;;;;;;4991376;28;20121;-75
2021/04/03 08:47:51;;;;;;;22.58;5.80;;;15.10;75.10;;;;;;4992513;28;20026;-78
2021/04/03 08:50:17;;;;;;;29.90;11.15;;;15.80;73.80;;;;;;4994509;28;20061;-79
2021/04/03 08:52:44;;;;;;;23.77;7.38;;;16.50;73.30;;;;;;4991675;28;20117;-79
2021/04/03 08:55:10;;;;;;;16.25;4.97;;;17.00;67.60;;;;;;4991922;28;20476;-77
2021/04/03 08:57:36;;;;;;;17.33;5.05;;;17.10;63.90;;;;;;4992639;28;20081;-78
2021/04/03 09:00:04;;;;;;;19.10;5.40;;;17.90;60.30;;;;;;4991501;28;20050;-74
2021/04/03 09:02:31;;;;;;;17.15;5.80;;;18.60;59.50;;;;;;4993593;28;20045;-73
2021/04/03 09:05:02;;;;;;;21.92;6.50;;;19.40;59.10;;;;;;4992771;28;20204;-74
2021/04/03 09:07:32;;;;;;;18.98;5.75;;;20.00;56.50;;;;;;4992366;28;20067;-73
2021/04/03 09:10:05;;;;;;;17.02;5.88;;;20.50;53.30;;;;;;4991328;28;20050;-74
2021/04/03 09:12:31;;;;;;;21.98;5.72;;;20.50;50.90;;;;;;4990293;28;20034;-72
2021/04/03 09:14:56;;;;;;;15.77;5.60;;;21.90;49.70;;;;;;4990539;28;20104;-74
2021/04/03 09:17:24;;;;;;;16.85;5.82;;;22.70;46.70;;;;;;4991957;28;20054;-78
2021/04/03 09:19:51;;;;;;;16.88;5.53;;;23.10;45.40;;;;;;4989769;28;20048;-77
2021/04/03 09:22:18;;;;;;;18.65;5.45;;;22.60;43.10;;;;;;4989401;28;20030;-74
2021/04/03 09:24:44;;;;;;;15.60;5.45;;;22.50;42.60;;;;;;4990791;28;20042;-74
2021/04/03 09:27:17;;;;;;;17.70;6.72;;;23.00;42.40;;;;;;4990676;28;20499;-76
2021/04/03 09:29:48;;;;;;;22.40;7.07;;;23.70;41.00;;;;;;4988962;28;20049;-76
2021/04/03 09:32:16;;;;;;;17.17;6.38;;;22.90;41.50;;;;;;4992212;28;20030;-78
2021/04/03 09:34:41;;;;;;;22.15;7.18;;;24.20;40.40;;;;;;4990718;28;20046;-78
2021/04/03 09:37:25;;;;;;;18.45;6.47;;;24.70;40.20;;;;;;4989522;28;20361;-75
2021/04/03 09:39:53;;;;;;;18.83;6.53;;;24.90;39.80;;;;;;4990510;28;20038;-75
2021/04/03 09:42:30;;;;;;;15.20;6.15;;;24.50;38.30;;;;;;4989419;28;20069;-75
2021/04/03 09:44:57;;;;;;;18.50;6.07;;;24.00;37.90;;;;;;4986737;28;20091;-76
2021/04/03 09:47:24;;;;;;;18.20;6.75;;;23.50;39.00;;;;;;4993420;28;20026;-77
2021/04/03 09:49:50;;;;;;;15.57;6.50;;;24.80;38.20;;;;;;4990730;28;20053;-76
2021/04/03 09:52:17;;;;;;;17.27;6.38;;;25.60;37.40;;;;;;4991245;28;20260;-75
2021/04/03 09:54:47;;;;;;;13.90;5.70;;;24.00;37.40;;;;;;4991230;28;20027;-76
2021/04/03 09:57:14;;;;;;;15.50;4.97;;;24.90;37.80;;;;;;4991620;28;20473;-79
2021/04/03 09:59:42;;;;;;;13.38;6.10;;;25.70;35.60;;;;;;4992025;28;20034;-78
2021/04/03 10:02:08;;;;;;;21.02;5.65;;;26.40;34.40;;;;;;4992253;28;20085;-78
2021/04/03 10:04:33;;;;;;;14.80;6.57;;;26.50;34.10;;;;;;4991679;28;20456;-81
2021/04/03 10:07:00;;;;;;;14.05;6.22;;;26.60;33.50;;;;;;4992098;28;20053;-80
2021/04/03 10:09:26;;;;;;;11.05;5.70;;;25.50;33.70;;;;;;4991904;28;20034;-75
2021/04/03 10:11:55;;;;;;;16.25;6.35;;;26.20;33.70;;;;;;4990193;28;20033;-75
2021/04/03 10:14:25;;;;;;;15.63;6.22;;;26.60;33.00;;;;;;4992662;28;20026;-76
2021/04/03 10:20:52;;;;;;;15.50;6.18;;;24.10;34.70;;;;;;4989853;28;20060;-73
2021/04/03 10:23:18;;;;;;;13.88;5.63;;;24.30;33.80;;;;;;4992832;28;20109;-72
2021/04/03 10:25:44;;;;;;;16.02;6.80;;;24.00;34.60;;;;;;4989089;28;20061;-74
2021/04/03 10:28:10;;;;;;;14.35;5.68;;;23.20;35.10;;;;;;4991356;28;20042;-73
2021/04/03 10:30:36;;;;;;;18.08;6.18;;;23.40;34.70;;;;;;4991075;28;20026;-74
2021/04/03 10:33:01;;;;;;;16.30;6.25;;;22.90;35.20;;;;;;4990050;28;20022;-74
2021/04/03 10:35:27;;;;;;;14.88;5.43;;;22.60;35.80;;;;;;4992979;28;20084;-74
2021/04/03 10:37:52;;;;;;;14.65;5.13;;;22.80;35.30;;;;;;4991218;28;20372;-71
2021/04/03 10:40:18;;;;;;;14.65;6.13;;;22.80;35.30;;;;;;4991170;28;20042;-71
2021/04/03 10:42:44;;;;;;;18.10;5.53;;;22.40;35.00;;;;;;4991012;28;20565;-70
2021/04/03 10:45:10;;;;;;;14.63;5.38;;;22.20;35.60;;;;;;4991184;28;20039;-72
2021/04/03 10:47:35;;;;;;;11.60;3.72;;;21.70;36.10;;;;;;4993040;28;20018;-72
2021/04/03 10:50:01;;;;;;;12.13;4.32;;;21.10;34.60;;;;;;4991304;28;20053;-72
2021/04/03 10:52:27;;;;;;;9.50;3.72;;;20.40;35.60;;;;;;4990075;28;20047;-71
2021/04/03 10:54:52;;;;;;;7.15;2.40;;;19.90;36.60;;;;;;4989971;28;20100;-71
2021/04/03 10:57:21;;;;;;;7.47;1.77;;;19.50;34.80;;;;;;4990835;28;20031;-73
2021/04/03 10:59:47;;;;;;;4.35;1.25;;;19.30;32.90;;;;;;4990522;28;20028;-74
2021/04/03 11:02:13;;;;;;;5.10;2.10;;;19.50;32.10;;;;;;4991521;28;20086;-71
2021/04/03 11:04:39;;;;;;;3.58;1.77;;;20.10;33.60;;;;;;4989445;28;20054;-73
2021/04/03 11:07:06;;;;;;;5.45;1.63;;;20.40;34.00;;;;;;4989524;28;20041;-72
2021/04/03 11:09:31;;;;;;;5.43;1.80;;;20.30;33.80;;;;;;4989470;28;20046;-74
2021/04/03 11:11:57;;;;;;;4.35;1.45;;;20.20;33.40;;;;;;4989417;28;20022;-72
2021/04/03 11:14:23;;;;;;;4.15;1.75;;;19.80;32.80;;;;;;4990932;28;20496;-74
2021/04/03 11:16:48;;;;;;;4.95;1.60;;;19.60;33.00;;;;;;4989720;28;20043;-71
2021/04/03 11:19:14;;;;;;;7.03;1.55;;;19.40;32.80;;;;;;4989134;28;20601;-74
2021/04/03 11:21:39;;;;;;;6.40;1.50;;;19.10;33.60;;;;;;4988995;28;20062;-72
2021/04/03 11:24:06;;;;;;;7.00;1.30;;;18.60;34.10;;;;;;4988401;28;20030;-73
2021/04/03 11:26:31;;;;;;;3.90;1.40;;;18.10;34.70;;;;;;4993792;28;20026;-72
2021/04/03 11:28:57;;;;;;;6.18;1.60;;;18.30;34.70;;;;;;4993264;28;20041;-72
2021/04/03 11:31:23;;;;;;;3.58;1.20;;;18.60;33.70;;;;;;4993241;28;20033;-70
2021/04/03 11:33:48;;;;;;;2.70;1.13;;;18.10;33.90;;;;;;4992799;28;20042;-70
2021/04/03 11:36:14;;;;;;;3.10;0.85;;;18.50;34.50;;;;;;4992897;28;20117;-71
2021/04/03 11:38:40;;;;;;;3.08;1.30;;;18.30;33.00;;;;;;4994065;28;20231;-77
2021/04/03 11:41:05;;;;;;;7.38;1.25;;;18.20;33.00;;;;;;4992281;28;20035;-72
2021/04/03 11:43:31;;;;;;;3.78;1.25;;;18.20;34.20;;;;;;4992738;28;20479;-72
2021/04/03 11:45:57;;;;;;;6.07;1.00;;;17.70;33.40;;;;;;4992864;28;20042;-72
2021/04/03 11:48:22;;;;;;;2.83;1.05;;;17.60;34.60;;;;;;4992510;28;20026;-72
2021/04/03 11:50:48;;;;;;;4.75;1.10;;;17.60;34.40;;;;;;4992638;28;20030;-72
2021/04/03 11:53:14;;;;;;;3.08;0.90;;;17.60;34.60;;;;;;4994394;28;20117;-72
2021/04/03 11:55:40;;;;;;;4.60;1.10;;;17.60;34.10;;;;;;4992624;28;20539;-72
2021/04/03 11:58:06;;;;;;;2.03;0.95;;;17.70;34.70;;;;;;4991415;28;20042;-74
2021/04/03 12:00:31;;;;;;;3.97;1.15;;;17.80;34.90;;;;;;4992623;28;20030;-71
2021/04/03 12:02:57;;;;;;;6.95;1.35;;;17.80;34.70;;;;;;4991124;28;20426;-69
2021/04/03 12:05:23;;;;;;;2.92;0.95;;;17.70;34.70;;;;;;4994001;28;20022;-70
2021/04/03 12:07:48;;;;;;;3.47;1.30;;;17.60;35.00;;;;;;4992354;28;20039;-71
2021/04/03 12:10:16;;;;;;;4.55;1.20;;;17.40;35.10;;;;;;4991002;28;20030;-73
2021/04/03 12:12:42;;;;;;;3.55;1.40;;;17.30;35.20;;;;;;4992360;28;20047;-73
2021/04/03 12:15:10;;;;;;;2.45;1.35;;;17.30;35.60;;;;;;4992087;28;20054;-72
2021/04/03 12:17:37;;;;;;;6.00;1.85;;;17.10;34.80;;;;;;4993611;28;20050;-73
2021/04/03 12:20:09;;;;;;;4.22;1.30;;;17.30;36.10;;;;;;4991785;28;20358;-71
2021/04/03 12:22:34;;;;;;;4.50;1.33;;;17.20;36.00;;;;;;4991794;28;20054;-74
2021/04/03 12:25:00;;;;;;;9.07;1.30;;;17.30;36.10;;;;;;4990490;28;20113;-73
2021/04/03 12:27:25;;;;;;;3.25;1.00;;;17.20;36.40;;;;;;4990517;28;20100;-74
2021/04/03 12:29:51;;;;;;;3.67;1.13;;;17.10;35.70;;;;;;4992083;28;20315;-73
2021/04/03 12:32:17;;;;;;;4.38;1.23;;;17.00;36.00;;;;;;4993374;28;20314;-75
2021/04/03 12:34:43;;;;;;;2.90;0.95;;;17.10;36.20;;;;;;4991548;28;20042;-71
2021/04/03 12:37:12;;;;;;;4.32;1.10;;;17.00;35.80;;;;;;4989546;28;20121;-73
2021/04/03 12:39:38;;;;;;;6.57;1.67;;;16.90;36.30;;;;;;4991649;28;20412;-70
2021/04/03 12:42:04;;;;;;;3.05;1.05;;;16.80;36.70;;;;;;4991743;28;20042;-70
2021/04/03 12:44:29;;;;;;;3.50;0.95;;;16.60;36.50;;;;;;4993088;28;20036;-72
2021/04/03 12:46:55;;;;;;;2.47;1.08;;;16.60;37.20;;;;;;4991372;28;20034;-72
2021/04/03 12:49:21;;;;;;;2.40;1.10;;;16.60;36.10;;;;;;4991617;28;20039;-72
2021/04/03 12:51:46;;;;;;;2.42;0.80;;;16.50;35.90;;;;;;4990495;28;20035;-71